Pittsfield, IL

6:19 PM CDT on September 25, 2017 (GMT -0500)
Pittsfield Penstone Municipal

Weather History for KPPQ - April, 2013

Change the Weather History Date:

Monday, April 1, 2013

  Actual Average (KUIN) Record (KUIN)
Temperature  
Mean Temperature 38 °F -  
Max Temperature 45 °F 55 °F 86 °F (2010)
Min Temperature 32 °F 37 °F 21 °F (1924)
Degree Days  
Heating Degree Days 26    
Moisture  
Dew Point 23 °F    
Average Humidity 55    
Maximum Humidity 74    
Minimum Humidity 31    
Precipitation  
Precipitation 0.00 in - - ()
Sea Level Pressure  
Sea Level Pressure 30.17 in    
Wind  
Wind Speed 13 mph (NW)    
Max Wind Speed 21 mph    
Max Gust Speed 28 mph    
Visibility 10 miles    
Events Snow    
Averages and records for this station are not official NWS values.
T = Trace of Precipitation, MM = Missing Value Source: NWS Daily Summary

Daily Weather History Graph

Daily Weather History Graph

Search for Another Location

Airport or City:

Trip Planner

Search our weather history database for the weather conditions in past years. The results will help you decide how hot, cold, wet, or windy it might be!

Date:

Astronomy

Apr. 01, 2013 Rise Set
Actual Time 6:46 AM CDT 7:27 PM CDT
Civil Twilight 6:19 AM CDT 7:54 PM CDT
Nautical Twilight 5:47 AM CDT 8:26 PM CDT
Astronomical Twilight 5:14 AM CDT 9:00 PM CDT
Moon 12:34 AM CDT (4/1) 10:34 AM CDT (4/1)
Length of Visible Light 13h 34m
Length of Day
12h 40m
Waning Gibbous, 67% of the Moon is Illuminated
Apr 1
Waning Gibbous
Apr 2
Last Quarter
Apr 10
New
Apr 18
First Quarter
Apr 25
Full

Hourly Weather History & Observations

Time (CDT) Temp. Windchill Dew Point Humidity Pressure Visibility Wind Dir Wind Speed Gust Speed Precip Events Conditions
12:15 AM 41.9 °F 34.6 °F 30.4 °F 64% 29.99 in 10.0 mi NNW 13.8 mph 18.4 mph N/A   Clear
12:35 AM 41.5 °F 34.2 °F 30.6 °F 65% 30.00 in 10.0 mi NNW 13.8 mph 17.3 mph N/A   Clear
12:55 AM 41.4 °F 34.0 °F 30.4 °F 65% 30.01 in 10.0 mi NNW 13.8 mph 18.4 mph N/A   Clear
1:15 AM 40.8 °F 33.3 °F 29.5 °F 64% 30.02 in 10.0 mi NNW 13.8 mph 20.7 mph N/A   Clear
1:35 AM 41.0 °F 32.5 °F 28.8 °F 62% 30.02 in 10.0 mi NNW 17.3 mph 25.3 mph N/A   Clear
1:55 AM 40.6 °F 31.2 °F 28.8 °F 63% 30.03 in 10.0 mi North 20.7 mph 27.6 mph N/A   Scattered Clouds
2:15 AM 40.1 °F 32.0 °F 29.3 °F 65% 30.04 in 10.0 mi NNW 15.0 mph 24.2 mph N/A   Overcast
2:35 AM 40.1 °F 33.2 °F 28.0 °F 62% 30.04 in 10.0 mi North 11.5 mph 23.0 mph N/A   Overcast
2:55 AM 39.2 °F 29.3 °F 24.8 °F 56% 30.04 in 10.0 mi North 20.7 mph 27.6 mph N/A   Mostly Cloudy
3:15 AM 39.2 °F 32.0 °F 24.6 °F 56% 30.05 in 10.0 mi North 11.5 mph 24.2 mph N/A   Mostly Cloudy
3:35 AM 38.7 °F 29.1 °F 25.0 °F 58% 30.05 in 10.0 mi NNW 18.4 mph 25.3 mph N/A   Overcast
3:55 AM 37.8 °F 28.6 °F 25.5 °F 61% 30.06 in 10.0 mi North 16.1 mph 20.7 mph N/A   Overcast
4:15 AM 37.0 °F 26.4 °F 21.6 °F 54% 30.07 in 10.0 mi NNW 20.7 mph 27.6 mph N/A   Overcast
4:35 AM 36.9 °F 28.2 °F 23.0 °F 57% 30.07 in 10.0 mi North 13.8 mph 24.2 mph N/A   Overcast
4:55 AM 35.6 °F 25.5 °F 24.8 °F 65% 30.09 in 10.0 mi North 17.3 mph 23.0 mph N/A   Overcast
5:15 AM 35.6 °F 26.6 °F 22.1 °F 58% 30.10 in 10.0 mi NNW 13.8 mph - N/A   Overcast
5:35 AM 35.1 °F 27.9 °F 25.2 °F 67% 30.11 in 10.0 mi NW 9.2 mph 18.4 mph N/A Snow Light Snow
5:55 AM 35.6 °F 26.6 °F 24.8 °F 65% 30.11 in 10.0 mi NNW 13.8 mph 17.3 mph N/A   Overcast
6:15 AM 35.2 °F 26.2 °F 24.6 °F 65% 30.12 in 10.0 mi NNW 13.8 mph 19.6 mph N/A   Overcast
6:35 AM 34.2 °F 24.4 °F 25.0 °F 69% 30.14 in 10.0 mi NNW 15.0 mph - N/A   Scattered Clouds
6:55 AM 33.8 °F 25.3 °F 24.8 °F 70% 30.15 in 10.0 mi NNW 11.5 mph - N/A   Scattered Clouds
7:15 AM 32.5 °F 22.3 °F 25.0 °F 74% 30.16 in 10.0 mi NNW 15.0 mph 18.4 mph N/A   Clear
7:35 AM 32.5 °F 23.2 °F 24.6 °F 73% 30.17 in 10.0 mi NNW 12.7 mph 16.1 mph N/A   Clear
7:55 AM 32.7 °F 23.4 °F 25.2 °F 74% 30.18 in 10.0 mi NNW 12.7 mph - N/A   Clear
8:15 AM 33.1 °F 23.0 °F 25.3 °F 73% 30.19 in 10.0 mi NW 15.0 mph - N/A   Clear
8:35 AM 32.9 °F 23.2 °F 25.0 °F 73% 30.20 in 10.0 mi NNW 13.8 mph - N/A   Clear
8:55 AM 33.8 °F 24.3 °F 24.8 °F 70% 30.20 in 10.0 mi North 13.8 mph - N/A   Clear
9:15 AM 34.3 °F 25.9 °F 24.6 °F 68% 30.21 in 10.0 mi NW 11.5 mph - N/A   Clear
9:35 AM 34.5 °F 27.9 °F 24.4 °F 67% 30.21 in 10.0 mi NW 8.1 mph - N/A   Clear
9:55 AM 35.4 °F 29.0 °F 24.6 °F 65% 30.23 in 10.0 mi NNW 8.1 mph - N/A   Clear
10:15 AM 36.1 °F 31.4 °F 25.0 °F 64% 30.22 in 10.0 mi NNW 5.8 mph - N/A   Clear
10:35 AM 37.0 °F 31.0 °F 25.7 °F 64% 30.22 in 10.0 mi WNW 8.1 mph - N/A   Scattered Clouds
10:55 AM 37.6 °F 31.0 °F 25.7 °F 62% 30.23 in 10.0 mi NW 9.2 mph - N/A   Scattered Clouds
11:15 AM 38.1 °F 34.6 °F 23.5 °F 56% 30.23 in 10.0 mi NW 4.6 mph - N/A   Scattered Clouds
11:35 AM 39.4 °F 31.8 °F 23.4 °F 53% 30.23 in 10.0 mi WNW 12.7 mph - N/A   Scattered Clouds
11:55 AM 39.2 °F 34.2 °F 23.0 °F 52% 30.23 in 10.0 mi WNW 6.9 mph 10.4 mph N/A   Clear
12:15 PM 39.9 °F 33.4 °F 23.0 °F 51% 30.22 in 10.0 mi NW 10.4 mph - N/A   Clear
12:35 PM 40.3 °F 33.9 °F 22.3 °F 49% 30.22 in 10.0 mi North 10.4 mph - N/A   Clear
12:55 PM 41.7 °F 34.8 °F 24.6 °F 51% 30.21 in 10.0 mi NNW 12.7 mph 17.3 mph N/A   Clear
1:15 PM 41.5 °F 35.9 °F 23.4 °F 49% 30.22 in 10.0 mi NW 9.2 mph - N/A   Clear
1:35 PM 42.1 °F 35.2 °F 21.6 °F 44% 30.21 in 10.0 mi NW 12.7 mph 17.3 mph N/A   Clear
1:55 PM 42.4 °F 37.5 °F 21.0 °F 43% 30.21 in 10.0 mi West 8.1 mph 16.1 mph N/A   Clear
2:15 PM 43.3 °F 39.2 °F 22.8 °F 44% 30.21 in 10.0 mi NNW 6.9 mph - N/A   Clear
2:35 PM 43.5 °F 38.9 °F 19.9 °F 39% 30.21 in 10.0 mi West 8.1 mph 17.3 mph N/A   Clear
2:55 PM 44.6 °F 38.1 °F 21.2 °F 39% 30.21 in 10.0 mi NW 13.8 mph 19.6 mph N/A   Clear
3:15 PM 44.6 °F 38.8 °F 22.5 °F 42% 30.21 in 10.0 mi West 11.5 mph - N/A   Scattered Clouds
3:35 PM 44.6 °F 39.7 °F 20.3 °F 38% 30.21 in 10.0 mi WNW 9.2 mph - N/A   Scattered Clouds
3:55 PM 45.0 °F 39.7 °F 20.8 °F 38% 30.20 in 10.0 mi WNW 10.4 mph 17.3 mph N/A   Clear
4:15 PM 44.6 °F 38.4 °F 18.0 °F 34% 30.20 in 10.0 mi WNW 12.7 mph 18.4 mph N/A   Clear
4:35 PM 45.0 °F 38.9 °F 18.9 °F 35% 30.20 in 10.0 mi WNW 12.7 mph 16.1 mph N/A   Clear
4:55 PM 45.1 °F 39.1 °F 18.9 °F 35% 30.20 in 10.0 mi NW 12.7 mph 18.4 mph N/A   Clear
5:15 PM 44.6 °F 41.4 °F 19.4 °F 37% 30.20 in 10.0 mi WNW 5.8 mph 10.4 mph N/A   Clear
5:35 PM 45.0 °F 38.9 °F 18.3 °F 35% 30.20 in 10.0 mi NW 12.7 mph - N/A   Clear
5:55 PM 44.6 °F 40.2 °F 16.9 °F 33% 30.20 in 10.0 mi West 8.1 mph - N/A   Clear
6:15 PM 44.1 °F 39.0 °F 15.1 °F 31% 30.20 in 10.0 mi WNW 9.2 mph - N/A   Clear
6:35 PM 43.7 °F 38.1 °F 16.9 °F 34% 30.20 in 10.0 mi NW 10.4 mph - N/A   Clear
6:55 PM 42.8 °F 37.0 °F 18.1 °F 37% 30.21 in 10.0 mi NW 10.4 mph 16.1 mph N/A   Clear
7:15 PM 41.9 °F 36.9 °F 18.3 °F 39% 30.21 in 10.0 mi NW 8.1 mph - N/A   Clear
7:35 PM 40.3 °F 35.5 °F 19.6 °F 44% 30.21 in 10.0 mi NW 6.9 mph - N/A   Clear
7:55 PM 39.0 °F 34.8 °F 22.3 °F 51% 30.21 in 10.0 mi NW 5.8 mph - N/A   Clear
8:15 PM 37.6 °F 33.1 °F 23.2 °F 56% 30.21 in 10.0 mi NW 5.8 mph - N/A   Clear
8:35 PM 36.1 °F 30.6 °F 21.6 °F 56% 30.22 in 10.0 mi NNW 6.9 mph - N/A   Clear
8:55 PM 36.7 °F 30.5 °F 19.6 °F 50% 30.23 in 10.0 mi North 8.1 mph - N/A   Clear
9:15 PM 36.5 °F 31.8 °F 19.4 °F 50% 30.23 in 10.0 mi NNW 5.8 mph - N/A   Clear
9:35 PM 35.1 °F 29.3 °F 21.0 °F 57% 30.23 in 10.0 mi NNW 6.9 mph - N/A   Clear
9:55 PM 35.1 °F 29.3 °F 21.0 °F 57% 30.24 in 10.0 mi NNW 6.9 mph - N/A   Clear
10:15 PM 35.1 °F 28.6 °F 20.3 °F 55% 30.24 in 10.0 mi NNW 8.1 mph - N/A   Clear
10:35 PM 35.1 °F 28.6 °F 20.3 °F 55% 30.24 in 10.0 mi NNW 8.1 mph - N/A   Clear
10:55 PM 35.1 °F 28.6 °F 19.8 °F 54% 30.25 in 10.0 mi NNW 8.1 mph - N/A   Clear
11:15 PM 34.7 °F 26.9 °F 19.8 °F 54% 30.25 in 10.0 mi North 10.4 mph - N/A   Clear
11:35 PM 34.5 °F 27.3 °F 19.9 °F 55% 30.26 in 10.0 mi NNW 9.2 mph - N/A   Clear
11:55 PM 33.6 °F 26.8 °F 20.3 °F 58% 30.26 in 10.0 mi NNW 8.1 mph - N/A   Clear